Time;durP1;ratioP1;P1;durP2;ratioP2;P2;SDS_P1;SDS_P2;PMS_P1;PMS_P2;Temp;Humidity;BMP_temperature;BMP_pressure;BME280_temperature;BME280_humidity;BME280_pressure;Samples;Min_cycle;Max_cycle;Signal;HPM_P1;HPM_P2
2021/07/26 00:01:58;;;;;;;30.80;15.00;;;;;;;18.84;68.38;99702.27;125731;1095;22912;-57
2021/07/26 00:04:40;;;;;;;27.93;15.65;;;;;;;18.81;68.40;99692.08;125702;1096;22810;-54
2021/07/26 00:07:12;;;;;;;30.65;16.80;;;;;;;18.78;68.67;99681.84;125651;1097;22806;-56
2021/07/26 00:09:43;;;;;;;25.65;15.85;;;;;;;18.76;68.58;99679.58;125752;1097;22783;-55
2021/07/26 00:12:15;;;;;;;28.67;16.53;;;;;;;18.75;68.88;99682.94;125697;1097;25890;-57
2021/07/26 00:14:47;;;;;;;28.47;16.27;;;;;;;18.73;69.06;99682.72;125711;1097;26366;-55
2021/07/26 00:17:18;;;;;;;26.07;15.43;;;;;;;18.71;69.38;99679.69;125728;1096;22783;-57
2021/07/26 00:19:50;;;;;;;33.37;16.27;;;;;;;18.68;69.40;99678.73;125747;1096;22793;-57
2021/07/26 00:22:21;;;;;;;25.40;15.57;;;;;;;18.62;69.50;99675.28;125909;1095;24371;-56
2021/07/26 00:24:53;;;;;;;27.40;16.50;;;;;;;18.62;69.75;99668.86;125834;1096;22864;-58
2021/07/26 00:27:25;;;;;;;26.27;15.37;;;;;;;18.63;69.86;99667.53;125649;1097;22781;-59
2021/07/26 00:29:57;;;;;;;24.30;14.83;;;;;;;18.62;70.05;99671.69;125700;1097;22804;-56
2021/07/26 00:32:29;;;;;;;26.33;14.47;;;;;;;18.62;69.98;99674.52;125694;1096;22788;-54
2021/07/26 00:35:01;;;;;;;25.85;15.90;;;;;;;18.62;70.08;99680.94;125791;1097;24939;-56
2021/07/26 00:37:32;;;;;;;26.27;15.37;;;;;;;18.62;69.99;99686.59;125709;1097;22791;-55
2021/07/26 00:40:08;;;;;;;27.60;15.10;;;;;;;18.63;70.20;99673.19;125796;1096;24605;-55
2021/07/26 00:42:40;;;;;;;27.10;15.90;;;;;;;18.62;70.42;99672.45;125746;1096;22810;-57
2021/07/26 00:45:13;;;;;;;25.40;15.60;;;;;;;18.56;70.59;99678.21;125626;1097;24445;-56
2021/07/26 00:47:45;;;;;;;25.93;15.63;;;;;;;18.57;70.36;99678.98;125709;1096;22819;-55
2021/07/26 00:50:17;;;;;;;25.40;14.70;;;;;;;18.55;70.53;99678.77;125668;1096;27437;-58
2021/07/26 00:52:50;;;;;;;22.67;13.90;;;;;;;18.49;70.85;99676.08;125706;1096;22799;-60
2021/07/26 00:55:23;;;;;;;26.30;15.65;;;;;;;18.46;70.96;99674.33;125716;1096;22863;-60
2021/07/26 00:57:54;;;;;;;24.13;14.97;;;;;;;18.45;70.67;99678.48;125683;1097;24448;-60
2021/07/26 01:00:29;;;;;;;26.97;15.47;;;;;;;18.47;70.74;99675.09;125621;1095;22809;-58
2021/07/26 01:03:00;;;;;;;27.70;15.30;;;;;;;18.47;71.10;99663.79;125702;1096;22813;-57
2021/07/26 01:05:32;;;;;;;26.30;15.90;;;;;;;18.46;71.22;99671.50;125806;1096;26258;-57
2021/07/26 01:08:04;;;;;;;29.30;15.20;;;;;;;18.48;70.82;99683.02;125839;1096;22783;-60
2021/07/26 01:10:36;;;;;;;28.05;16.65;;;;;;;18.51;70.81;99672.69;126088;1096;23225;-58
2021/07/26 01:13:07;;;;;;;27.90;15.20;;;;;;;18.52;70.61;99679.84;125772;1096;22800;-58
2021/07/26 01:15:39;;;;;;;26.35;15.50;;;;;;;18.53;71.08;99670.08;125831;1095;27227;-59
2021/07/26 01:18:23;;;;;;;26.67;15.60;;;;;;;18.54;70.79;99671.58;125831;1096;22780;-57
2021/07/26 01:20:56;;;;;;;25.90;17.00;;;;;;;18.53;71.43;99667.25;125792;1096;23061;-56
2021/07/26 01:23:30;;;;;;;28.50;16.45;;;;;;;18.51;71.25;99676.28;125807;1094;22810;-54
2021/07/26 01:26:03;;;;;;;25.65;15.80;;;;;;;18.50;71.07;99677.58;125924;1096;22783;-56
2021/07/26 01:28:37;;;;;;;25.55;15.75;;;;;;;18.52;71.16;99672.14;125852;1096;22830;-55
2021/07/26 01:31:11;;;;;;;22.35;14.35;;;;;;;18.55;71.08;99670.28;125764;1096;22863;-56
2021/07/26 01:33:44;;;;;;;26.85;15.15;;;;;;;18.53;71.20;99659.53;125774;1096;22806;-57
2021/07/26 01:36:17;;;;;;;25.27;15.20;;;;;;;18.54;71.14;99652.56;125803;1097;28945;-55
2021/07/26 01:38:53;;;;;;;26.40;15.60;;;;;;;18.55;71.45;99653.33;125863;1096;22796;-56
2021/07/26 01:41:30;;;;;;;27.80;16.60;;;;;;;18.55;71.47;99659.75;126115;1095;25359;-55
2021/07/26 01:44:06;;;;;;;26.30;15.95;;;;;;;18.55;71.65;99656.16;125947;1095;22779;-55
2021/07/26 01:46:51;;;;;;;28.20;17.45;;;;;;;18.54;71.77;99658.21;125693;1095;22841;-56
2021/07/26 01:49:31;;;;;;;24.80;15.45;;;;;;;18.56;71.69;99660.48;125587;1097;22780;-56
2021/07/26 01:52:03;;;;;;;28.07;16.43;;;;;;;18.56;71.79;99658.42;125839;1096;22842;-57
2021/07/26 01:54:34;;;;;;;27.33;15.90;;;;;;;18.57;71.92;99662.02;125774;1096;22779;-57
2021/07/26 01:57:07;;;;;;;28.60;16.05;;;;;;;18.58;71.65;99677.66;125816;1096;22783;-57
2021/07/26 01:59:39;;;;;;;25.40;15.15;;;;;;;18.59;71.69;99679.19;125880;1097;24484;-57
2021/07/26 02:02:10;;;;;;;27.00;15.53;;;;;;;18.58;71.53;99692.55;125856;1095;22829;-54
2021/07/26 02:04:43;;;;;;;25.33;15.93;;;;;;;18.57;72.03;99690.28;125771;1097;22764;-56
2021/07/26 02:07:14;;;;;;;28.87;16.83;;;;;;;18.55;71.94;99688.02;125808;1097;22807;-56
2021/07/26 02:09:46;;;;;;;25.63;15.73;;;;;;;18.55;71.53;99684.42;125786;1096;22812;-55
2021/07/26 02:12:17;;;;;;;25.67;17.50;;;;;;;18.55;72.09;99675.94;125832;1095;22790;-57
2021/07/26 02:14:49;;;;;;;27.85;16.20;;;;;;;18.56;72.14;99671.79;125782;1096;22803;-55
2021/07/26 02:17:21;;;;;;;27.17;15.70;;;;;;;18.55;71.96;99688.02;125818;1096;22794;-57
2021/07/26 02:19:52;;;;;;;27.40;15.77;;;;;;;18.57;72.33;99693.11;126027;1096;26363;-55
2021/07/26 02:22:24;;;;;;;26.05;16.60;;;;;;;18.58;72.34;99691.05;125763;1097;22864;-56
2021/07/26 02:24:55;;;;;;;25.57;15.60;;;;;;;18.58;72.12;99702.36;125788;1097;22867;-59
2021/07/26 02:27:27;;;;;;;26.70;15.90;;;;;;;18.58;72.10;99701.04;125738;1095;22813;-55
2021/07/26 02:30:01;;;;;;;26.20;16.40;;;;;;;18.60;72.27;99711.82;125743;1097;27652;-55
2021/07/26 02:32:33;;;;;;;26.23;16.07;;;;;;;18.60;72.12;99705.41;125908;1097;22808;-54
2021/07/26 02:35:05;;;;;;;26.85;15.90;;;;;;;18.57;72.26;99707.25;125855;1097;22780;-54
2021/07/26 02:37:37;;;;;;;27.43;16.40;;;;;;;18.55;72.22;99718.34;125838;1095;22807;-55
2021/07/26 02:40:11;;;;;;;25.10;15.80;;;;;;;18.56;72.21;99729.09;125859;1097;27402;-56
2021/07/26 02:42:42;;;;;;;27.80;15.90;;;;;;;18.56;72.35;99726.27;125909;1097;22814;-56
2021/07/26 02:45:14;;;;;;;28.60;17.83;;;;;;;18.54;72.73;99717.58;125922;1096;22778;-59
2021/07/26 02:47:46;;;;;;;27.30;16.67;;;;;;;18.54;72.56;99720.41;125781;1096;22827;-59
2021/07/26 02:50:17;;;;;;;27.70;18.03;;;;;;;18.53;72.86;99701.94;125774;1096;24490;-58
2021/07/26 02:52:49;;;;;;;26.70;16.90;;;;;;;18.52;72.99;99708.11;125769;1096;22791;-57
2021/07/26 02:55:21;;;;;;;27.90;16.90;;;;;;;18.49;73.01;99707.17;125768;1097;22871;-56
2021/07/26 02:57:53;;;;;;;27.50;16.73;;;;;;;18.48;72.99;99694.33;125835;1096;22809;-56
2021/07/26 03:00:25;;;;;;;29.47;18.03;;;;;;;18.48;73.45;99699.98;125746;1096;25887;-56
2021/07/26 03:02:57;;;;;;;27.10;16.90;;;;;;;18.46;73.12;99685.63;125900;1096;22792;-56
2021/07/26 03:05:28;;;;;;;33.17;17.00;;;;;;;18.48;73.43;99683.02;125854;1096;22809;-60
2021/07/26 03:08:00;;;;;;;26.97;16.63;;;;;;;18.48;73.38;99688.67;125890;1095;22810;-57
2021/07/26 03:10:31;;;;;;;29.90;16.70;;;;;;;18.48;73.18;99683.02;125762;1097;22784;-59
2021/07/26 03:13:03;;;;;;;27.70;17.33;;;;;;;18.49;73.44;99684.55;125808;1097;22798;-55
2021/07/26 03:15:37;;;;;;;31.20;17.50;;;;;;;18.51;73.52;99692.48;125748;1097;22783;-59
2021/07/26 03:18:09;;;;;;;29.80;17.95;;;;;;;18.51;74.01;99689.65;125797;1096;22781;-58
2021/07/26 03:20:40;;;;;;;26.50;16.85;;;;;;;18.50;73.56;99697.36;125843;1097;22793;-58
2021/07/26 03:23:13;;;;;;;31.45;18.70;;;;;;;18.47;73.85;99695.65;125721;1097;25890;-58
2021/07/26 03:25:45;;;;;;;27.75;18.00;;;;;;;18.45;74.42;99689.78;125662;1096;22780;-55
2021/07/26 03:28:16;;;;;;;28.70;18.50;;;;;;;18.45;74.03;99701.09;125751;1095;27524;-59
2021/07/26 03:30:48;;;;;;;30.95;18.20;;;;;;;18.45;74.14;99695.44;125772;1096;22787;-55
2021/07/26 03:33:21;;;;;;;29.70;18.23;;;;;;;18.47;74.45;99706.95;125790;1096;22860;-60
2021/07/26 03:35:54;;;;;;;29.10;17.80;;;;;;;18.48;74.09;99699.98;125679;1095;22810;-57
2021/07/26 03:38:26;;;;;;;27.47;17.80;;;;;;;18.48;74.59;99691.50;125746;1096;22806;-59
2021/07/26 03:40:57;;;;;;;27.90;17.70;;;;;;;18.48;74.43;99693.56;125747;1097;25887;-61
2021/07/26 03:43:30;;;;;;;25.20;17.40;;;;;;;18.45;74.81;99691.84;125733;1096;22864;-55
2021/07/26 03:46:01;;;;;;;29.63;17.67;;;;;;;18.40;74.97;99682.14;125851;1096;26258;-59
2021/07/26 03:48:32;;;;;;;31.20;18.63;;;;;;;18.37;74.74;99697.35;125729;1096;25893;-58
2021/07/26 03:51:04;;;;;;;29.50;17.40;;;;;;;18.38;74.81;99693.23;125625;1095;24454;-57
2021/07/26 03:53:37;;;;;;;29.07;17.50;;;;;;;18.41;74.88;99697.04;125725;1095;22780;-56
2021/07/26 03:56:08;;;;;;;28.70;18.65;;;;;;;18.42;74.65;99690.06;125752;1096;27054;-55
2021/07/26 03:58:40;;;;;;;31.07;18.20;;;;;;;18.45;74.60;99695.44;125942;1096;22810;-55
2021/07/26 04:01:12;;;;;;;31.63;17.70;;;;;;;18.46;75.03;99696.94;125690;1096;23711;-57
2021/07/26 04:03:45;;;;;;;27.93;17.10;;;;;;;18.49;74.90;99690.20;125832;1096;24445;-54
2021/07/26 04:06:18;;;;;;;27.20;17.40;;;;;;;18.51;74.74;99693.25;125743;1097;22779;-55
2021/07/26 04:08:52;;;;;;;26.87;17.20;;;;;;;18.54;75.07;99697.79;125877;1097;22792;-58
2021/07/26 04:11:26;;;;;;;28.80;18.20;;;;;;;18.55;75.24;99704.98;125864;1095;27230;-57
2021/07/26 04:14:01;;;;;;;25.80;17.40;;;;;;;18.56;75.18;99708.55;125729;1096;24494;-56
2021/07/26 04:16:32;;;;;;;28.03;17.27;;;;;;;18.56;75.09;99712.13;125723;1095;23932;-58
2021/07/26 04:19:04;;;;;;;28.37;18.57;;;;;;;18.56;75.07;99703.66;125857;1095;22834;-58
2021/07/26 04:21:36;;;;;;;32.90;18.10;;;;;;;18.55;75.68;99716.28;125769;1096;23374;-57
2021/07/26 04:24:08;;;;;;;27.95;17.80;;;;;;;18.52;75.90;99717.36;125965;1096;22810;-54
2021/07/26 04:26:40;;;;;;;31.33;18.40;;;;;;;18.51;75.98;99723.57;125752;1095;22820;-57
2021/07/26 04:29:11;;;;;;;30.70;19.00;;;;;;;18.50;75.85;99728.45;125871;1096;22869;-57
2021/07/26 04:31:43;;;;;;;27.67;17.40;;;;;;;18.51;75.81;99729.99;125977;1096;25796;-61
2021/07/26 04:34:15;;;;;;;30.95;18.45;;;;;;;18.55;75.83;99729.66;125917;1095;26303;-59
2021/07/26 04:36:46;;;;;;;28.20;18.30;;;;;;;18.56;75.93;99734.75;125747;1095;27792;-55
2021/07/26 04:39:18;;;;;;;27.43;17.57;;;;;;;18.60;75.85;99733.67;125741;1095;23011;-58
2021/07/26 04:41:50;;;;;;;32.70;18.50;;;;;;;18.63;76.19;99729.73;125942;1096;22764;-60
2021/07/26 04:44:22;;;;;;;31.97;20.00;;;;;;;18.66;76.16;99729.42;125722;1097;26726;-59
2021/07/26 04:46:54;;;;;;;37.33;22.17;;;;;;;18.69;76.49;99727.55;125938;1096;22849;-59
2021/07/26 04:49:25;;;;;;;35.50;23.25;;;;;;;18.71;76.48;99716.45;125831;1096;22764;-60
2021/07/26 04:51:57;;;;;;;36.03;24.27;;;;;;;18.71;76.61;99720.03;126140;1097;22794;-60
2021/07/26 04:54:28;;;;;;;37.20;23.37;;;;;;;18.74;76.31;99716.13;125557;1096;22810;-67
2021/07/26 04:57:00;;;;;;;32.57;22.13;;;;;;;18.78;76.64;99722.20;125918;1095;22820;-57
2021/07/26 04:59:32;;;;;;;36.20;22.13;;;;;;;18.81;76.39;99717.53;125845;1096;22944;-62
2021/07/26 05:02:04;;;;;;;37.47;22.33;;;;;;;18.85;76.57;99727.17;125814;1097;22784;-61
2021/07/26 05:04:36;;;;;;;36.40;22.38;;;;;;;18.88;76.32;99726.08;125656;1096;26261;-59
2021/07/26 05:07:08;;;;;;;34.10;22.33;;;;;;;18.88;76.61;99723.26;128235;1096;22809;-61
2021/07/26 05:09:41;;;;;;;34.97;22.10;;;;;;;18.86;76.75;99734.36;127421;1096;22802;-59
2021/07/26 05:12:14;;;;;;;32.13;20.77;;;;;;;18.87;76.84;99723.81;125739;1095;27741;-59
2021/07/26 05:14:48;;;;;;;32.63;21.03;;;;;;;18.90;76.81;99731.19;125761;1097;22835;-58
2021/07/26 05:17:23;;;;;;;31.63;21.17;;;;;;;18.95;76.96;99724.66;125627;1095;22877;-59
2021/07/26 05:19:54;;;;;;;31.57;20.33;;;;;;;19.00;76.85;99735.06;125744;1097;26546;-60
2021/07/26 05:22:26;;;;;;;30.60;19.65;;;;;;;19.05;77.08;99734.95;125775;1096;22759;-59
2021/07/26 05:24:57;;;;;;;32.90;19.83;;;;;;;19.08;76.80;99733.07;125804;1095;26075;-60
2021/07/26 05:27:29;;;;;;;31.00;19.73;;;;;;;19.09;76.90;99729.71;125486;1095;22806;-60
2021/07/26 05:30:00;;;;;;;31.77;19.40;;;;;;;19.11;76.84;99737.64;125815;1095;24445;-60
2021/07/26 05:32:32;;;;;;;31.70;19.83;;;;;;;19.16;76.64;99731.84;125560;1094;22815;-59
2021/07/26 05:35:04;;;;;;;31.73;19.85;;;;;;;19.23;76.72;99736.06;125807;1095;22801;-59
2021/07/26 05:37:36;;;;;;;31.90;20.73;;;;;;;19.29;76.73;99734.62;125590;1097;27236;-59
2021/07/26 05:40:09;;;;;;;31.57;19.73;;;;;;;19.32;76.60;99741.25;125608;1096;22845;-58
2021/07/26 05:42:41;;;;;;;30.30;18.93;;;;;;;19.32;76.75;99732.77;125651;1096;22811;-61
2021/07/26 05:45:13;;;;;;;30.37;18.53;;;;;;;19.32;76.62;99744.08;125599;1096;22866;-58
2021/07/26 05:47:49;;;;;;;29.47;19.20;;;;;;;19.33;76.70;99760.53;125614;1097;22837;-58
2021/07/26 05:50:21;;;;;;;31.10;18.57;;;;;;;19.36;76.76;99753.02;125558;1096;22780;-61
2021/07/26 05:52:52;;;;;;;35.50;20.47;;;;;;;19.34;76.19;99755.64;125783;1096;22813;-60
2021/07/26 05:55:24;;;;;;;38.77;21.73;;;;;;;19.33;76.43;99754.88;125569;1097;22970;-58
2021/07/26 05:57:56;;;;;;;31.90;19.55;;;;;;;19.34;76.42;99758.47;125614;1097;22837;-59
2021/07/26 06:00:36;;;;;;;31.70;20.40;;;;;;;19.35;76.21;99762.80;125808;1095;22780;-60
2021/07/26 06:03:07;;;;;;;33.63;20.33;;;;;;;19.40;76.15;99766.81;125654;1095;25887;-60
2021/07/26 06:05:47;;;;;;;35.03;19.83;;;;;;;19.44;76.37;99772.89;125614;1096;22791;-61
2021/07/26 06:08:18;;;;;;;41.30;22.30;;;;;;;19.49;76.49;99772.75;125673;1097;25676;-59
2021/07/26 06:10:50;;;;;;;33.67;19.03;;;;;;;19.51;76.04;99770.16;125554;1097;22783;-59
2021/07/26 06:13:21;;;;;;;30.75;19.13;;;;;;;19.52;76.42;99777.32;125633;1097;22783;-60
2021/07/26 06:15:52;;;;;;;40.67;20.27;;;;;;;19.55;76.22;99783.95;125632;1097;22783;-61
2021/07/26 06:18:24;;;;;;;33.70;18.70;;;;;;;19.59;75.92;99781.54;125646;1097;25858;-60
2021/07/26 06:20:55;;;;;;;31.27;19.57;;;;;;;19.63;76.07;99779.12;125773;1095;22880;-59
2021/07/26 06:23:28;;;;;;;31.20;20.07;;;;;;;19.65;76.33;99784.98;125643;1095;22880;-59
2021/07/26 06:25:59;;;;;;;35.23;20.77;;;;;;;19.67;76.40;99788.80;125675;1095;22809;-61
2021/07/26 06:28:31;;;;;;;32.75;20.08;;;;;;;19.70;76.33;99775.61;125635;1097;22842;-61
2021/07/26 06:31:03;;;;;;;36.68;21.30;;;;;;;19.74;76.49;99788.08;125722;1096;22812;-61
2021/07/26 06:33:35;;;;;;;34.75;19.10;;;;;;;19.80;76.13;99791.53;125720;1097;23779;-62
2021/07/26 06:36:07;;;;;;;32.57;19.33;;;;;;;19.87;75.91;99796.52;125608;1097;22996;-60
2021/07/26 06:38:39;;;;;;;30.40;17.60;;;;;;;19.95;75.50;99793.73;125858;1097;22780;-61
2021/07/26 06:41:10;;;;;;;28.63;19.15;;;;;;;20.01;76.11;99797.94;125598;1096;24490;-59
2021/07/26 06:43:42;;;;;;;28.93;19.20;;;;;;;20.07;75.57;99795.71;125579;1095;24452;-61
2021/07/26 06:46:14;;;;;;;31.65;19.68;;;;;;;20.16;75.82;99794.45;125606;1097;22765;-60
2021/07/26 06:48:45;;;;;;;30.75;18.98;;;;;;;20.23;76.11;99805.13;125878;1096;22794;-60
2021/07/26 06:51:17;;;;;;;29.20;18.95;;;;;;;20.28;75.67;99798.53;125721;1096;24459;-58
2021/07/26 06:53:50;;;;;;;30.63;18.90;;;;;;;20.32;75.68;99809.53;125635;1096;27150;-59
2021/07/26 06:56:22;;;;;;;33.38;18.90;;;;;;;20.37;76.09;99808.61;125519;1096;24432;-59
2021/07/26 06:58:53;;;;;;;29.38;17.80;;;;;;;20.44;76.02;99807.91;125507;1096;26693;-60
2021/07/26 07:01:25;;;;;;;29.30;18.00;;;;;;;20.50;75.66;99806.44;125503;1097;27615;-61
2021/07/26 07:03:56;;;;;;;28.80;18.45;;;;;;;20.57;75.65;99811.38;125604;1097;26701;-60
2021/07/26 07:06:28;;;;;;;29.03;17.90;;;;;;;20.64;75.84;99801.39;125839;1096;22783;-61
2021/07/26 07:08:59;;;;;;;29.13;19.20;;;;;;;20.69;75.95;99806.89;125604;1096;22806;-58
2021/07/26 07:11:31;;;;;;;28.03;17.10;;;;;;;20.79;75.63;99812.82;125558;1096;22809;-59
2021/07/26 07:14:03;;;;;;;27.08;17.23;;;;;;;20.85;75.85;99804.91;125556;1095;22807;-60
2021/07/26 07:16:34;;;;;;;24.75;15.30;;;;;;;20.93;75.95;99809.30;125879;1096;22801;-61
2021/07/26 07:19:06;;;;;;;29.58;18.95;;;;;;;21.03;75.89;99801.03;125683;1097;22780;-62
2021/07/26 07:21:38;;;;;;;29.17;18.47;;;;;;;21.14;75.70;99799.93;125670;1096;25357;-61
2021/07/26 07:24:10;;;;;;;31.45;19.70;;;;;;;21.25;75.52;99796.75;125680;1096;22787;-62
2021/07/26 07:26:42;;;;;;;31.18;17.60;;;;;;;21.35;75.42;99803.39;125742;1096;22813;-62
2021/07/26 07:29:15;;;;;;;26.75;16.45;;;;;;;21.43;74.94;99807.77;125797;1097;22783;-62
2021/07/26 07:31:46;;;;;;;26.80;17.67;;;;;;;21.51;75.16;99800.02;125783;1097;22868;-62
2021/07/26 07:34:18;;;;;;;24.25;16.23;;;;;;;21.59;75.18;99805.70;125725;1096;22780;-62
2021/07/26 07:36:49;;;;;;;26.43;17.10;;;;;;;21.72;75.24;99814.06;125839;1097;25002;-61
2021/07/26 07:39:20;;;;;;;29.30;18.03;;;;;;;21.85;74.68;99816.00;125762;1096;22784;-63
2021/07/26 07:41:54;;;;;;;26.23;17.20;;;;;;;21.95;75.04;99820.55;125753;1097;23346;-61
2021/07/26 07:44:29;;;;;;;24.38;14.88;;;;;;;22.07;74.20;99823.75;125739;1095;22810;-60
2021/07/26 07:47:01;;;;;;;29.03;16.58;;;;;;;22.13;74.47;99816.55;125586;1097;22783;-62
2021/07/26 07:49:33;;;;;;;25.75;16.78;;;;;;;22.23;74.29;99820.33;125716;1096;22813;-61
2021/07/26 07:52:05;;;;;;;29.03;17.63;;;;;;;22.34;73.60;99828.48;125700;1096;22813;-61
2021/07/26 07:54:37;;;;;;;27.08;16.45;;;;;;;22.43;73.32;99824.27;126353;1095;22780;-62
2021/07/26 07:57:09;;;;;;;28.23;18.03;;;;;;;22.54;72.95;99821.03;125713;1096;25887;-61
2021/07/26 07:59:41;;;;;;;27.05;16.98;;;;;;;22.57;72.79;99822.75;125914;1096;22814;-60
2021/07/26 08:02:12;;;;;;;27.20;17.25;;;;;;;22.64;72.99;99824.09;125790;1097;24884;-60
2021/07/26 08:04:45;;;;;;;63.05;40.85;;;;;;;22.72;72.33;99834.09;125769;1097;22918;-60
2021/07/26 08:07:17;;;;;;;37.50;24.15;;;;;;;22.71;72.23;99826.14;125877;1096;22877;-59
2021/07/26 08:09:48;;;;;;;28.13;17.35;;;;;;;22.74;72.18;99828.59;125925;1095;22760;-59
2021/07/26 08:12:20;;;;;;;28.93;17.87;;;;;;;22.78;72.02;99831.80;125697;1096;22838;-61
2021/07/26 08:14:52;;;;;;;27.40;16.98;;;;;;;22.81;71.73;99842.05;125681;1097;22944;-61
2021/07/26 08:17:23;;;;;;;25.38;15.73;;;;;;;22.85;71.73;99835.96;125699;1095;22783;-61
2021/07/26 08:19:57;;;;;;;29.50;15.90;;;;;;;22.88;71.14;99840.52;125677;1097;25836;-62
2021/07/26 08:22:33;;;;;;;31.88;17.90;;;;;;;22.87;71.57;99842.59;125725;1096;24490;-59
2021/07/26 08:25:06;;;;;;;25.55;15.90;;;;;;;22.92;71.52;99838.80;125747;1096;22809;-60
2021/07/26 08:27:51;;;;;;;27.13;17.83;;;;;;;22.94;71.27;99847.52;126483;1096;22842;-59
2021/07/26 08:30:25;;;;;;;24.68;16.23;;;;;;;22.99;71.24;99851.47;126178;1097;22886;-59
2021/07/26 08:32:57;;;;;;;30.20;16.58;;;;;;;23.03;70.98;99854.70;125724;1096;22791;-59
2021/07/26 08:35:29;;;;;;;25.15;15.90;;;;;;;23.06;71.10;99848.61;125634;1097;22807;-57
2021/07/26 08:38:00;;;;;;;24.98;15.33;;;;;;;23.06;70.73;99842.91;125979;1096;22792;-59
2021/07/26 08:40:33;;;;;;;23.63;15.20;;;;;;;23.12;70.87;99843.45;125837;1096;22814;-60
2021/07/26 08:43:08;;;;;;;28.68;15.63;;;;;;;23.18;70.85;99846.84;125727;1097;22779;-60
2021/07/26 08:45:40;;;;;;;26.10;16.80;;;;;;;23.26;70.85;99856.11;125854;1095;24452;-61
2021/07/26 08:48:12;;;;;;;24.98;16.25;;;;;;;23.34;70.66;99850.39;125692;1095;22806;-61
2021/07/26 08:50:46;;;;;;;26.50;15.50;;;;;;;23.40;70.47;99861.58;125803;1097;22780;-61
2021/07/26 08:53:20;;;;;;;28.83;17.13;;;;;;;23.46;70.69;99862.88;125842;1095;25941;-59
2021/07/26 08:55:52;;;;;;;25.65;15.23;;;;;;;23.55;70.28;99859.39;125774;1096;22788;-60
2021/07/26 08:58:24;;;;;;;25.05;14.88;;;;;;;23.69;69.96;99869.19;125714;1097;22761;-60
2021/07/26 09:00:57;;;;;;;29.38;17.48;;;;;;;23.84;69.63;99876.88;125704;1097;22780;-59
2021/07/26 09:03:28;;;;;;;25.55;16.50;;;;;;;23.98;69.19;99875.28;125966;1095;27645;-59
2021/07/26 09:05:59;;;;;;;25.73;16.60;;;;;;;24.06;68.05;99856.05;125716;1097;22832;-59
2021/07/26 09:08:36;;;;;;;27.63;16.48;;;;;;;24.19;68.90;99855.00;125718;1096;26249;-59
2021/07/26 09:11:09;;;;;;;26.48;16.48;;;;;;;24.34;69.02;99852.75;125926;1097;22786;-60
2021/07/26 09:13:44;;;;;;;27.35;16.48;;;;;;;24.51;68.42;99847.08;126066;1097;22837;-59
2021/07/26 09:16:21;;;;;;;25.60;16.27;;;;;;;24.61;67.73;99852.87;125772;1097;27661;-61
2021/07/26 09:19:06;;;;;;;25.38;15.55;;;;;;;24.63;66.87;99855.89;125735;1095;22793;-59
2021/07/26 09:21:52;;;;;;;29.35;14.23;;;;;;;24.61;66.58;99850.77;126047;1096;24475;-60
2021/07/26 09:24:28;;;;;;;28.80;16.05;;;;;;;24.68;66.48;99852.81;125780;1095;24445;-59
2021/07/26 09:27:11;;;;;;;24.55;14.63;;;;;;;24.80;66.87;99845.28;125674;1095;22821;-64
2021/07/26 09:29:43;;;;;;;24.18;13.98;;;;;;;24.92;66.17;99850.46;125920;1095;22806;-59
2021/07/26 09:32:14;;;;;;;26.10;14.28;;;;;;;25.03;65.46;99847.10;125724;1096;22790;-57
2021/07/26 09:34:46;;;;;;;22.78;14.23;;;;;;;25.06;65.72;99849.52;125734;1096;24502;-62
2021/07/26 09:37:21;;;;;;;24.58;13.90;;;;;;;25.11;65.36;99857.09;125679;1097;25510;-59
2021/07/26 09:39:52;;;;;;;26.88;14.18;;;;;;;25.11;64.23;99859.95;125879;1095;22807;-58
2021/07/26 09:42:29;;;;;;;22.70;13.20;;;;;;;25.14;63.83;99850.19;125689;1097;22946;-60
2021/07/26 09:45:21;;;;;;;21.58;13.78;;;;;;;25.23;64.46;99851.60;125751;1096;22792;-60
2021/07/26 09:48:11;;;;;;;22.53;13.18;;;;;;;25.39;64.45;99853.67;125711;1095;23778;-59
2021/07/26 09:50:42;;;;;;;;;;;;;;;25.51;64.22;99851.81;125740;1096;22877;-58
2021/07/26 09:53:16;;;;;;;22.78;13.00;;;;;;;25.60;63.26;99853.98;126120;1097;21755;-59
2021/07/26 09:55:52;;;;;;;19.88;12.83;;;;;;;25.55;62.52;99846.42;125747;1096;24608;-59
2021/07/26 09:58:37;;;;;;;22.38;14.10;;;;;;;25.58;63.05;99853.82;125704;1096;26273;-59
2021/07/26 10:01:12;;;;;;;23.55;13.70;;;;;;;25.65;63.29;99852.97;125676;1095;22861;-60
2021/07/26 10:03:45;;;;;;;22.08;13.53;;;;;;;25.79;63.17;99844.74;125725;1096;22798;-58
2021/07/26 10:06:18;;;;;;;22.25;14.03;;;;;;;25.85;62.43;99855.90;125686;1097;22806;-58
2021/07/26 10:08:51;;;;;;;24.55;14.23;;;;;;;25.92;62.47;99852.18;125925;1097;25890;-59
2021/07/26 10:11:24;;;;;;;22.48;13.80;;;;;;;26.01;62.17;99854.33;125790;1097;25887;-60
2021/07/26 10:13:57;;;;;;;24.00;14.85;;;;;;;26.06;61.92;99859.77;126181;1095;22822;-60
2021/07/26 10:16:28;;;;;;;24.10;15.55;;;;;;;26.14;61.49;99857.56;125740;1095;22799;-58
2021/07/26 10:19:00;;;;;;;22.75;14.30;;;;;;;26.18;61.13;99851.39;125807;1096;27319;-60
2021/07/26 10:21:32;;;;;;;23.23;14.85;;;;;;;26.20;60.48;99866.61;125610;1096;22782;-59
2021/07/26 10:24:08;;;;;;;21.10;13.85;;;;;;;26.14;60.24;99860.42;125654;1095;22832;-58
2021/07/26 10:26:44;;;;;;;24.03;15.43;;;;;;;26.10;60.23;99868.69;125780;1096;22780;-60
2021/07/26 10:29:16;;;;;;;25.27;16.97;;;;;;;26.11;60.40;99869.45;125695;1096;23830;-58
2021/07/26 10:31:51;;;;;;;26.18;15.63;;;;;;;26.15;59.86;99864.05;125590;1096;25896;-59
2021/07/26 10:34:36;;;;;;;24.23;15.07;;;;;;;26.12;59.37;99865.98;125821;1095;23991;-61
2021/07/26 10:37:07;;;;;;;22.45;14.90;;;;;;;26.12;59.71;99865.22;125697;1096;22783;-60
2021/07/26 10:40:15;;;;;;;23.65;15.60;;;;;;;26.21;59.63;99861.66;125644;1096;22783;-59
2021/07/26 10:42:47;;;;;;;23.50;14.37;;;;;;;26.35;58.87;99863.50;125128;1097;22792;-60
2021/07/26 10:46:00;;;;;;;22.68;15.65;;;;;;;26.46;58.26;99860.05;125189;1097;25371;-60
2021/07/26 10:48:36;;;;;;;24.05;15.38;;;;;;;26.48;57.84;99858.70;125261;1096;22777;-59
2021/07/26 10:51:39;;;;;;;24.68;15.03;;;;;;;26.42;57.34;99856.88;125176;1097;22841;-59
2021/07/26 10:54:30;;;;;;;25.93;15.70;;;;;;;26.41;57.17;99858.24;125058;1097;24480;-61
2021/07/26 10:57:12;;;;;;;24.35;14.53;;;;;;;26.37;57.28;99854.31;125242;1097;22870;-59
2021/07/26 11:00:18;;;;;;;24.73;14.80;;;;;;;26.39;57.25;99858.09;125261;1097;25855;-60
2021/07/26 11:02:51;;;;;;;21.58;14.13;;;;;;;26.46;56.64;99859.31;125115;1095;25792;-58
2021/07/26 11:05:38;;;;;;;24.50;15.85;;;;;;;26.50;56.95;99859.63;125090;1097;22803;-60
2021/07/26 11:08:29;;;;;;;26.00;14.55;;;;;;;26.47;56.38;99860.80;125239;1097;22850;-60
2021/07/26 11:11:01;;;;;;;24.08;15.05;;;;;;;26.41;56.81;99866.06;125341;1095;22783;-59
2021/07/26 11:14:12;;;;;;;22.33;15.15;;;;;;;26.42;56.32;99856.14;125119;1095;22800;-58
2021/07/26 11:17:07;;;;;;;22.28;13.93;;;;;;;26.43;56.27;99846.95;125252;1097;22831;-61
2021/07/26 11:19:54;;;;;;;21.03;13.60;;;;;;;26.53;56.31;99837.63;125466;1095;22773;-61
2021/07/26 11:23:00;;;;;;;20.75;13.60;;;;;;;26.65;56.28;99839.28;125755;1096;25966;-60
2021/07/26 11:25:35;;;;;;;24.63;13.53;;;;;;;26.85;56.57;99832.25;125682;1095;24451;-61
2021/07/26 11:28:07;;;;;;;23.10;13.75;;;;;;;26.98;56.23;99842.51;125652;1096;22779;-61
2021/07/26 11:30:40;;;;;;;21.90;14.20;;;;;;;27.15;56.10;99837.35;125710;1096;22764;-62
2021/07/26 11:33:13;;;;;;;20.25;13.18;;;;;;;27.29;56.68;99834.78;125976;1096;22866;-61
2021/07/26 11:35:45;;;;;;;20.50;13.55;;;;;;;27.43;55.81;99826.47;125786;1095;24509;-60
2021/07/26 11:38:17;;;;;;;19.45;11.93;;;;;;;27.54;55.70;99823.72;125735;1095;22806;-59
2021/07/26 11:40:48;;;;;;;18.30;11.80;;;;;;;27.62;54.87;99818.58;125621;1096;24636;-60